createdAt,value
2018-08-21T00:02:56.435Z,17.20
2018-08-21T00:06:59.579Z,17.20
2018-08-21T00:11:14.070Z,17.20
2018-08-21T00:15:20.016Z,17.00
2018-08-21T00:19:24.200Z,16.90
2018-08-21T00:23:27.416Z,17.00
2018-08-21T00:27:30.500Z,16.90
2018-08-21T00:31:39.165Z,16.80
2018-08-21T00:35:47.467Z,16.80
2018-08-21T00:39:50.604Z,16.70
2018-08-21T00:43:59.760Z,16.60
2018-08-21T00:48:03.426Z,16.70
2018-08-21T00:52:06.528Z,16.70
2018-08-21T00:56:09.656Z,16.60
2018-08-21T01:00:12.744Z,16.60
2018-08-21T01:04:15.956Z,16.60
2018-08-21T01:12:22.008Z,16.50
2018-08-21T01:16:26.232Z,16.60
2018-08-21T01:20:29.441Z,16.60
2018-08-21T01:24:32.528Z,16.70
2018-08-21T01:28:36.375Z,16.60
2018-08-21T01:32:40.055Z,16.80
2018-08-21T01:36:43.204Z,16.80
2018-08-21T01:40:46.296Z,16.80
2018-08-21T01:44:49.420Z,16.80
2018-08-21T01:52:55.628Z,16.90
2018-08-21T01:56:58.821Z,17.00
2018-08-21T02:01:02.028Z,17.00
2018-08-21T02:05:05.173Z,17.00
2018-08-21T02:09:10.294Z,17.10
2018-08-21T02:13:13.371Z,17.10
2018-08-21T02:21:19.393Z,17.10
2018-08-21T02:25:23.249Z,17.10
2018-08-21T02:29:26.339Z,17.10
2018-08-21T02:33:29.548Z,17.00
2018-08-21T02:37:32.695Z,17.00
2018-08-21T02:41:35.897Z,17.10
2018-08-21T02:45:38.975Z,17.10
2018-08-21T02:49:42.412Z,17.10
2018-08-21T02:53:45.519Z,17.10
2018-08-21T02:57:48.624Z,17.00
2018-08-21T03:05:55.944Z,17.10
2018-08-21T03:09:59.035Z,17.10
2018-08-21T03:14:02.160Z,17.00
2018-08-21T03:18:05.265Z,17.00
2018-08-21T03:22:08.457Z,17.10
2018-08-21T03:26:11.761Z,17.10
2018-08-21T03:30:14.876Z,17.20
2018-08-21T03:34:17.982Z,17.20
2018-08-21T03:38:21.104Z,17.20
2018-08-21T03:46:48.712Z,17.10
2018-08-21T03:50:51.943Z,17.20
2018-08-21T03:54:55.088Z,17.20
2018-08-21T03:58:58.349Z,17.20
2018-08-21T04:03:01.472Z,17.10
2018-08-21T04:11:07.855Z,16.80
2018-08-21T04:15:10.932Z,16.80
2018-08-21T04:19:14.132Z,16.80
2018-08-21T04:23:17.220Z,16.80
2018-08-21T04:27:20.355Z,16.70
2018-08-21T04:31:23.470Z,16.80
2018-08-21T04:35:26.587Z,16.90
2018-08-21T04:39:29.693Z,17.00
2018-08-21T04:43:32.833Z,17.00
2018-08-21T04:47:40.024Z,17.10
2018-08-21T04:51:43.396Z,17.10
2018-08-21T04:55:46.496Z,16.90
2018-08-21T04:59:49.756Z,16.80
2018-08-21T05:03:52.836Z,16.80
2018-08-21T05:07:58.444Z,16.90
2018-08-21T05:12:01.584Z,17.00
2018-08-21T05:16:04.966Z,17.00
2018-08-21T05:20:08.064Z,16.90
2018-08-21T05:24:11.204Z,17.10
2018-08-21T05:28:14.840Z,17.20
2018-08-21T05:32:18.071Z,17.20
2018-08-21T05:36:21.188Z,17.20
2018-08-21T05:40:24.304Z,17.20
2018-08-21T05:44:37.565Z,17.30
2018-08-21T05:48:40.891Z,17.50
2018-08-21T05:52:44.508Z,17.60
2018-08-21T05:56:47.632Z,17.90
2018-08-21T06:00:50.768Z,17.90
2018-08-21T06:04:53.908Z,17.90
2018-08-21T06:13:02.204Z,18.10
2018-08-21T06:17:05.896Z,18.30
2018-08-21T06:25:11.993Z,18.70
2018-08-21T06:29:15.214Z,18.80
2018-08-21T06:33:18.337Z,18.80
2018-08-21T06:41:26.923Z,19.30
2018-08-21T06:45:30.059Z,19.40
2018-08-21T06:49:33.136Z,19.80
2018-08-21T06:53:36.264Z,20.20
2018-08-21T06:57:39.344Z,20.20
2018-08-21T07:01:43.388Z,20.40
2018-08-21T07:05:46.484Z,20.40
2018-08-21T07:09:49.709Z,20.50
2018-08-21T07:13:52.800Z,20.70
2018-08-21T07:17:56.068Z,20.50
2018-08-21T07:21:59.152Z,20.30
2018-08-21T07:26:02.299Z,20.30
2018-08-21T07:30:06.409Z,20.30
2018-08-21T07:34:09.630Z,20.10
2018-08-21T07:38:12.757Z,20.10
2018-08-21T07:42:16.333Z,19.90
2018-08-21T07:46:20.447Z,20.10
2018-08-21T07:54:26.485Z,20.40
2018-08-21T07:58:29.708Z,20.60
2018-08-21T08:02:52.862Z,20.60
2018-08-21T08:06:56.864Z,20.80
2018-08-21T08:10:59.952Z,20.80
2018-08-21T08:15:03.652Z,20.80
2018-08-21T08:19:07.035Z,20.80
2018-08-21T08:23:10.230Z,20.80
2018-08-21T08:27:13.284Z,20.70
2018-08-21T08:31:16.517Z,20.70
2018-08-21T08:35:22.708Z,20.80
2018-08-21T08:39:25.824Z,20.90
2018-08-21T08:43:28.925Z,21.00
2018-08-21T08:47:32.113Z,21.10
2018-08-21T08:51:36.016Z,21.10
2018-08-21T08:55:54.708Z,21.50
2018-08-21T09:00:05.093Z,21.50
2018-08-21T09:04:08.249Z,21.70
2018-08-21T09:08:11.348Z,22.10
2018-08-21T09:12:14.488Z,22.50
2018-08-21T09:16:17.668Z,22.70
2018-08-21T09:20:20.952Z,22.70
2018-08-21T09:24:24.048Z,22.90
2018-08-21T09:28:27.190Z,22.90
2018-08-21T09:32:31.139Z,22.70
2018-08-21T09:36:34.359Z,22.80
2018-08-21T09:40:37.452Z,22.70
2018-08-21T09:44:40.683Z,22.80
2018-08-21T09:48:43.783Z,22.90
2018-08-21T09:52:47.013Z,23.00
2018-08-21T09:56:50.126Z,23.20
2018-08-21T10:00:58.645Z,23.30
2018-08-21T10:13:13.072Z,24.00
2018-08-21T10:21:26.094Z,24.20
2018-08-21T10:25:29.235Z,24.40
2018-08-21T10:29:32.335Z,24.90
2018-08-21T10:33:35.501Z,25.20
2018-08-21T10:49:51.687Z,25.50
2018-08-21T10:53:54.796Z,25.50
2018-08-21T11:02:00.815Z,25.90
2018-08-21T11:14:11.525Z,26.40
2018-08-21T11:22:17.768Z,26.40
2018-08-21T11:38:30.212Z,26.10
2018-08-21T11:50:39.441Z,25.80
2018-08-21T11:54:42.653Z,25.60
2018-08-21T11:58:45.741Z,25.40
2018-08-21T12:02:48.897Z,25.40
2018-08-21T12:14:57.844Z,25.30
2018-08-21T12:19:01.004Z,25.20
2018-08-21T12:23:04.224Z,25.20
2018-08-21T12:27:07.441Z,25.10
2018-08-21T12:31:10.559Z,25.00
2018-08-21T12:39:16.560Z,25.00
2018-08-21T12:47:22.733Z,24.80
2018-08-21T12:51:25.849Z,24.70
2018-08-21T12:59:32.077Z,24.20
2018-08-21T13:07:38.072Z,24.10
2018-08-21T13:11:41.151Z,24.10
2018-08-21T13:19:47.200Z,24.10
2018-08-21T13:23:50.491Z,24.20
2018-08-21T13:35:59.526Z,24.30
2018-08-21T13:44:05.717Z,24.20
2018-08-21T13:48:09.164Z,24.30
2018-08-21T13:52:12.260Z,24.20
2018-08-21T14:00:18.272Z,24.40
2018-08-21T14:04:21.413Z,24.40
2018-08-21T14:08:24.517Z,24.40
2018-08-21T14:20:33.551Z,24.50
2018-08-21T14:28:39.822Z,24.70
2018-08-21T14:40:49.646Z,25.00
2018-08-21T14:48:55.742Z,25.10
2018-08-21T14:52:58.969Z,25.30
2018-08-21T14:57:02.072Z,25.20
2018-08-21T15:01:05.276Z,25.20
2018-08-21T15:05:08.390Z,25.20
2018-08-21T15:09:12.305Z,25.20
2018-08-21T15:17:18.436Z,25.20
2018-08-21T15:29:27.796Z,25.20
2018-08-21T15:49:42.648Z,25.10
2018-08-21T15:53:45.733Z,25.10
2018-08-21T16:01:51.922Z,24.90
2018-08-21T16:05:55.036Z,25.00
2018-08-21T16:09:58.141Z,25.00
2018-08-21T16:14:01.292Z,25.00
2018-08-21T16:18:04.436Z,24.80
2018-08-21T16:22:07.726Z,24.70
2018-08-21T16:26:10.972Z,24.70
2018-08-21T16:30:14.104Z,24.70
2018-08-21T16:34:17.220Z,24.70
2018-08-21T16:38:20.425Z,24.60
2018-08-21T16:42:23.568Z,24.50
2018-08-21T16:46:26.874Z,24.50
2018-08-21T16:54:33.294Z,24.50
2018-08-21T16:58:36.384Z,24.50
2018-08-21T17:06:42.433Z,24.50
2018-08-21T17:18:51.616Z,24.50
2018-08-21T17:26:57.892Z,24.50
2018-08-21T17:31:02.016Z,24.40
2018-08-21T17:35:05.612Z,24.30
2018-08-21T17:43:13.245Z,24.20
2018-08-21T17:47:16.747Z,24.30
2018-08-21T17:59:25.768Z,24.20
2018-08-21T18:03:29.433Z,24.00
2018-08-21T18:07:32.644Z,23.90
2018-08-21T18:11:35.728Z,23.90
2018-08-21T18:15:39.065Z,23.80
2018-08-21T18:23:45.992Z,23.60
2018-08-21T18:31:53.144Z,23.40
2018-08-21T18:35:56.220Z,23.20
2018-08-21T18:39:59.452Z,23.10
2018-08-21T18:44:03.746Z,22.90
2018-08-21T18:52:11.276Z,22.70
2018-08-21T18:56:14.605Z,22.60
2018-08-21T19:04:21.213Z,22.30
2018-08-21T19:08:25.140Z,22.30
2018-08-21T19:12:28.302Z,22.10
2018-08-21T19:16:31.408Z,22.00
2018-08-21T19:24:37.528Z,21.80
2018-08-21T19:28:40.920Z,21.70
2018-08-21T19:32:44.039Z,21.60
2018-08-21T19:36:47.251Z,21.50
2018-08-21T19:40:50.348Z,21.40
2018-08-21T19:44:53.472Z,21.20
2018-08-21T19:53:00.296Z,20.90
2018-08-21T19:57:03.400Z,20.90
2018-08-21T20:01:06.533Z,20.80
2018-08-21T20:05:09.640Z,20.70
2018-08-21T20:09:12.866Z,20.70
2018-08-21T20:13:15.994Z,20.60
2018-08-21T20:17:19.164Z,20.50
2018-08-21T20:21:22.300Z,20.50
2018-08-21T20:29:28.436Z,20.40
2018-08-21T20:37:34.984Z,20.10
2018-08-21T20:45:41.388Z,19.90
2018-08-21T20:49:44.595Z,19.90
2018-08-21T20:53:47.793Z,19.90
2018-08-21T20:57:51.020Z,20.00
2018-08-21T21:01:54.135Z,20.00
2018-08-21T21:05:57.357Z,20.00
2018-08-21T21:10:00.464Z,19.90
2018-08-21T21:14:14.916Z,19.90
2018-08-21T21:18:29.601Z,19.80
2018-08-21T21:22:43.979Z,19.80
2018-08-21T21:26:47.099Z,19.70
2018-08-21T21:30:50.718Z,19.70
2018-08-21T21:38:56.740Z,19.40
2018-08-21T21:43:00.989Z,19.30
2018-08-21T21:47:04.101Z,19.30
2018-08-21T21:51:07.192Z,19.30
2018-08-21T21:55:10.407Z,19.20
2018-08-21T21:59:13.603Z,19.10
2018-08-21T22:03:17.812Z,19.10
2018-08-21T22:07:20.941Z,19.10
2018-08-21T22:11:24.208Z,19.00
2018-08-21T22:15:27.291Z,18.70
2018-08-21T22:19:30.652Z,18.40
2018-08-21T22:23:33.763Z,18.30
2018-08-21T22:27:36.975Z,18.30
2018-08-21T22:31:40.203Z,18.30
2018-08-21T22:35:43.347Z,18.40
2018-08-21T22:39:46.447Z,18.50
2018-08-21T22:47:52.895Z,18.60
2018-08-21T22:51:56.275Z,18.70
2018-08-21T22:55:59.314Z,18.70
2018-08-21T23:00:02.512Z,18.60
2018-08-21T23:04:05.663Z,18.60
2018-08-21T23:08:08.783Z,18.60
2018-08-21T23:12:11.957Z,18.70
2018-08-21T23:16:15.128Z,18.70
2018-08-21T23:20:18.259Z,18.70
2018-08-21T23:24:22.004Z,18.60
2018-08-21T23:28:25.183Z,18.60
2018-08-21T23:32:28.476Z,18.60
2018-08-21T23:40:35.419Z,18.50
2018-08-21T23:44:38.583Z,18.40
2018-08-21T23:48:41.846Z,18.40
2018-08-21T23:52:44.939Z,18.40
2018-08-21T23:56:48.081Z,18.40
